Time;durP1;ratioP1;P1;durP2;ratioP2;P2;SDS_P1;SDS_P2;PMS_P1;PMS_P2;Temp;Humidity;BMP_temperature;BMP_pressure;BME280_temperature;BME280_humidity;BME280_pressure;Samples;Min_cycle;Max_cycle;Signal;HPM_P1;HPM_P2
2022/03/29 00:00:38;;;;;;;24.15;16.23;;;7.40;99.90;;;;;;5114190;28;20189;-62
2022/03/29 00:03:05;;;;;;;29.48;17.05;;;7.40;99.90;;;;;;5095872;28;20104;-62
2022/03/29 00:05:31;;;;;;;23.48;16.25;;;7.40;99.90;;;;;;5079485;28;20052;-62
2022/03/29 00:07:57;;;;;;;21.85;15.55;;;7.40;99.90;;;;;;5114401;28;20374;-62
2022/03/29 00:10:23;;;;;;;22.60;14.85;;;7.30;99.90;;;;;;5113904;28;20128;-62
2022/03/29 00:12:53;;;;;;;26.00;16.23;;;7.30;99.90;;;;;;5079392;28;20051;-62
2022/03/29 00:15:24;;;;;;;24.88;15.40;;;7.30;99.90;;;;;;5095367;28;20075;-62
2022/03/29 00:17:50;;;;;;;23.50;15.80;;;7.30;99.90;;;;;;5114040;28;20052;-62
2022/03/29 00:20:17;;;;;;;22.92;14.95;;;7.20;99.90;;;;;;5095667;28;20449;-62
2022/03/29 00:22:44;;;;;;;21.58;15.30;;;7.30;99.90;;;;;;5114049;28;20043;-62
2022/03/29 00:25:10;;;;;;;23.58;15.30;;;7.40;99.90;;;;;;5113590;28;20047;-61
2022/03/29 00:27:36;;;;;;;25.98;16.10;;;7.40;99.90;;;;;;5113790;28;20047;-62
2022/03/29 00:30:04;;;;;;;24.95;15.27;;;7.40;99.90;;;;;;5113581;28;20527;-62
2022/03/29 00:32:30;;;;;;;23.95;15.15;;;7.40;99.90;;;;;;5078831;28;20108;-62
2022/03/29 00:34:55;;;;;;;24.52;15.20;;;7.40;99.90;;;;;;5113399;28;20043;-62
2022/03/29 00:37:21;;;;;;;21.35;15.07;;;7.40;99.90;;;;;;5113279;28;20040;-62
2022/03/29 00:39:47;;;;;;;26.63;16.13;;;7.40;99.90;;;;;;5113747;28;20450;-62
2022/03/29 00:42:12;;;;;;;29.08;16.75;;;7.40;99.90;;;;;;5113572;28;20044;-63
2022/03/29 00:44:38;;;;;;;29.15;16.90;;;7.40;99.90;;;;;;5095516;28;20089;-62
2022/03/29 00:47:05;;;;;;;28.40;16.75;;;7.40;99.90;;;;;;5094849;28;20590;-50
2022/03/29 00:49:31;;;;;;;25.52;17.48;;;7.30;99.90;;;;;;5078324;28;20058;-53
2022/03/29 00:52:00;;;;;;;28.63;17.08;;;7.30;99.90;;;;;;5113763;28;20043;-53
2022/03/29 00:54:30;;;;;;;30.42;17.42;;;7.30;99.90;;;;;;5113323;28;20086;-54
2022/03/29 00:57:05;;;;;;;28.55;17.40;;;7.20;99.90;;;;;;5113719;28;20039;-54
2022/03/29 00:59:31;;;;;;;28.80;16.63;;;7.20;99.90;;;;;;5113231;28;20047;-54
2022/03/29 01:01:57;;;;;;;28.00;16.88;;;7.20;99.90;;;;;;5077738;28;20043;-51
2022/03/29 01:04:28;;;;;;;28.05;16.88;;;7.20;99.90;;;;;;5112970;28;20058;-53
2022/03/29 01:06:58;;;;;;;27.20;16.58;;;7.10;99.90;;;;;;5094664;28;20044;-57
2022/03/29 01:09:29;;;;;;;29.67;17.52;;;7.10;99.90;;;;;;5112632;28;20504;-52
2022/03/29 01:11:56;;;;;;;28.48;16.95;;;7.10;99.90;;;;;;5095474;28;20040;-55
2022/03/29 01:14:23;;;;;;;26.13;16.88;;;7.10;99.90;;;;;;5112448;28;20696;-52
2022/03/29 01:19:37;;;;;;;29.40;17.15;;;7.10;99.90;;;;;;5112724;28;20048;-54
2022/03/29 01:22:05;;;;;;;26.30;16.85;;;7.10;99.90;;;;;;5113115;28;20051;-55
2022/03/29 01:24:32;;;;;;;30.35;16.63;;;7.10;99.90;;;;;;5112650;28;20040;-52
2022/03/29 01:27:05;;;;;;;31.05;17.17;;;7.10;99.90;;;;;;5113142;28;20046;-54
2022/03/29 01:29:33;;;;;;;32.13;16.98;;;7.20;99.90;;;;;;5094426;28;20051;-54
2022/03/29 01:32:01;;;;;;;26.23;15.95;;;7.20;99.90;;;;;;5112897;28;20055;-55
2022/03/29 01:34:28;;;;;;;27.40;16.60;;;7.20;99.90;;;;;;5112461;28;20140;-54
2022/03/29 01:36:54;;;;;;;24.63;15.02;;;7.20;99.90;;;;;;5112648;28;20511;-53
2022/03/29 01:39:20;;;;;;;26.80;16.63;;;7.10;99.90;;;;;;5112416;28;20456;-54
2022/03/29 01:41:48;;;;;;;24.80;16.52;;;7.10;99.90;;;;;;5112767;28;20079;-50
2022/03/29 01:44:14;;;;;;;30.40;17.95;;;7.10;99.90;;;;;;5112480;28;20044;-55
2022/03/29 01:46:40;;;;;;;29.02;16.05;;;7.10;99.90;;;;;;5094604;28;20044;-54
2022/03/29 01:49:06;;;;;;;30.15;16.95;;;7.10;99.90;;;;;;5112667;28;20043;-55
2022/03/29 01:51:33;;;;;;;26.73;16.40;;;7.10;99.90;;;;;;5112114;28;20043;-54
2022/03/29 01:54:00;;;;;;;26.52;16.02;;;7.10;99.90;;;;;;5094319;28;20505;-54
2022/03/29 01:56:27;;;;;;;27.33;17.52;;;7.00;99.90;;;;;;5112059;28;20129;-54
2022/03/29 01:58:53;;;;;;;30.33;16.92;;;7.00;99.90;;;;;;5077609;28;20052;-55
2022/03/29 02:01:19;;;;;;;30.70;17.65;;;7.00;99.90;;;;;;5094008;28;20039;-58
2022/03/29 02:03:45;;;;;;;28.42;17.13;;;7.10;99.90;;;;;;5094027;28;20086;-54
2022/03/29 02:06:10;;;;;;;25.58;16.63;;;7.10;99.90;;;;;;5112636;28;20075;-53
2022/03/29 02:08:36;;;;;;;29.50;16.55;;;7.10;99.90;;;;;;5112020;28;20078;-54
2022/03/29 02:11:02;;;;;;;26.73;16.23;;;7.10;99.90;;;;;;5112327;28;20550;-53
2022/03/29 02:13:27;;;;;;;25.83;16.00;;;7.00;99.90;;;;;;5092431;28;20127;-53
2022/03/29 02:15:53;;;;;;;26.38;16.55;;;7.10;99.90;;;;;;5112085;28;20487;-56
2022/03/29 02:18:19;;;;;;;28.40;16.65;;;7.00;99.90;;;;;;5094243;28;20070;-56
2022/03/29 02:20:47;;;;;;;29.48;17.17;;;7.00;99.90;;;;;;5094114;28;20050;-55
2022/03/29 02:23:15;;;;;;;27.92;16.30;;;7.00;99.90;;;;;;5077344;28;20090;-55
2022/03/29 02:25:42;;;;;;;27.98;16.75;;;7.00;99.90;;;;;;5093797;28;20051;-57
2022/03/29 02:28:08;;;;;;;27.77;16.92;;;7.00;99.90;;;;;;5111979;28;20119;-56
2022/03/29 02:30:35;;;;;;;27.92;16.55;;;7.00;99.90;;;;;;5093740;28;20044;-56
2022/03/29 02:33:02;;;;;;;29.10;17.13;;;6.90;99.90;;;;;;5094058;28;20118;-54
2022/03/29 02:35:28;;;;;;;25.38;15.73;;;6.90;99.90;;;;;;5111744;28;20409;-57
2022/03/29 02:37:54;;;;;;;27.65;17.10;;;6.90;99.90;;;;;;5093971;28;20040;-55
2022/03/29 02:40:19;;;;;;;32.70;16.88;;;6.90;99.90;;;;;;5077029;28;20499;-56
2022/03/29 02:42:47;;;;;;;27.92;16.25;;;6.90;99.90;;;;;;5076745;28;20489;-53
2022/03/29 02:45:18;;;;;;;29.83;16.67;;;6.90;99.90;;;;;;5093942;28;20059;-53
2022/03/29 02:47:46;;;;;;;28.50;17.30;;;7.00;99.90;;;;;;5111179;28;20044;-54
2022/03/29 02:50:12;;;;;;;28.05;16.85;;;7.00;99.90;;;;;;5111896;28;20043;-54
2022/03/29 02:52:43;;;;;;;27.00;16.65;;;7.00;99.90;;;;;;5111753;28;20047;-53
2022/03/29 02:55:10;;;;;;;28.92;17.27;;;6.90;99.90;;;;;;5093968;28;20381;-53
2022/03/29 02:57:35;;;;;;;27.52;17.27;;;6.90;99.90;;;;;;5076686;28;20055;-52
2022/03/29 03:00:01;;;;;;;26.13;16.77;;;6.90;99.90;;;;;;5111706;28;20047;-57
2022/03/29 03:02:27;;;;;;;29.08;17.27;;;6.90;99.90;;;;;;5111442;28;20251;-53
2022/03/29 03:04:52;;;;;;;29.27;16.65;;;6.90;99.90;;;;;;5111884;28;20491;-56
2022/03/29 03:07:18;;;;;;;27.48;15.90;;;6.90;99.90;;;;;;5076833;28;20119;-54
2022/03/29 03:09:44;;;;;;;26.92;16.25;;;6.90;99.90;;;;;;5093311;28;20477;-55
2022/03/29 03:12:10;;;;;;;28.05;17.58;;;6.90;99.90;;;;;;5111808;28;20047;-57
2022/03/29 03:14:36;;;;;;;26.48;17.17;;;6.90;99.90;;;;;;5075880;28;20047;-53
2022/03/29 03:17:01;;;;;;;26.83;16.30;;;6.90;99.90;;;;;;5076683;28;20138;-54
2022/03/29 03:19:28;;;;;;;28.85;17.13;;;6.90;99.90;;;;;;5093286;28;20469;-58
2022/03/29 03:21:54;;;;;;;25.15;16.77;;;7.00;99.90;;;;;;5093656;28;20056;-54
2022/03/29 03:24:20;;;;;;;24.95;15.05;;;7.00;99.90;;;;;;5112514;28;20043;-54
2022/03/29 03:26:45;;;;;;;29.05;16.88;;;7.00;99.90;;;;;;5079893;28;20050;-56
2022/03/29 03:29:11;;;;;;;28.63;18.02;;;7.10;99.90;;;;;;5097082;28;20051;-55
2022/03/29 03:31:37;;;;;;;30.65;17.33;;;7.10;99.90;;;;;;5096599;28;20040;-55
2022/03/29 03:34:02;;;;;;;26.55;17.15;;;7.10;99.90;;;;;;5063186;28;20040;-54
2022/03/29 03:36:28;;;;;;;30.30;16.90;;;7.10;99.90;;;;;;5114857;28;20056;-54
2022/03/29 03:38:54;;;;;;;31.05;18.10;;;7.10;99.90;;;;;;5114786;28;20053;-55
2022/03/29 03:41:20;;;;;;;28.23;17.05;;;7.10;99.90;;;;;;5096720;28;20130;-55
2022/03/29 03:43:45;;;;;;;31.17;16.77;;;7.10;99.90;;;;;;5114768;28;20382;-54
2022/03/29 03:46:11;;;;;;;29.20;17.30;;;7.10;99.90;;;;;;5114395;28;20039;-58
2022/03/29 03:48:37;;;;;;;28.48;16.67;;;7.20;99.90;;;;;;5079806;28;20051;-55
2022/03/29 03:51:02;;;;;;;28.85;17.83;;;7.10;99.90;;;;;;5096794;28;20040;-53
2022/03/29 03:53:29;;;;;;;26.52;17.15;;;7.00;99.90;;;;;;5114736;28;20087;-54
2022/03/29 03:55:54;;;;;;;28.95;17.20;;;7.00;99.90;;;;;;5114654;28;20048;-55
2022/03/29 03:58:20;;;;;;;33.47;18.17;;;7.00;99.90;;;;;;5114994;28;20089;-53
2022/03/29 04:00:46;;;;;;;28.55;17.55;;;7.00;99.90;;;;;;5096455;28;20488;-55
2022/03/29 04:03:11;;;;;;;28.40;17.45;;;7.00;99.90;;;;;;5096653;28;20126;-57
2022/03/29 04:05:38;;;;;;;31.17;17.60;;;7.00;99.90;;;;;;5114518;28;20039;-56
2022/03/29 04:08:04;;;;;;;24.40;17.42;;;7.00;99.90;;;;;;5079206;28;20047;-54
2022/03/29 04:10:30;;;;;;;32.72;19.50;;;7.00;99.90;;;;;;5096412;28;20051;-53
2022/03/29 04:12:55;;;;;;;31.52;18.85;;;7.10;99.90;;;;;;5095633;28;20047;-54
2022/03/29 04:15:21;;;;;;;27.50;17.70;;;7.10;99.90;;;;;;5114381;28;20054;-55
2022/03/29 04:17:47;;;;;;;30.42;18.55;;;7.10;99.90;;;;;;5096048;28;20374;-53
2022/03/29 04:20:12;;;;;;;34.97;17.98;;;7.10;99.90;;;;;;5114543;28;20043;-53
2022/03/29 04:22:38;;;;;;;29.83;17.88;;;7.10;99.90;;;;;;5095831;28;20046;-55
2022/03/29 04:25:05;;;;;;;32.47;19.23;;;7.00;99.90;;;;;;5114062;28;20038;-55
2022/03/29 04:27:30;;;;;;;29.02;18.02;;;7.00;99.90;;;;;;5114256;28;20134;-51
2022/03/29 04:29:56;;;;;;;35.80;19.58;;;7.10;99.90;;;;;;5113961;28;20706;-51
2022/03/29 04:32:22;;;;;;;29.92;18.30;;;7.00;99.90;;;;;;5096396;28;20054;-53
2022/03/29 04:34:48;;;;;;;31.13;19.48;;;7.10;99.90;;;;;;5095528;28;20047;-55
2022/03/29 04:37:14;;;;;;;33.83;19.10;;;7.00;99.90;;;;;;5113195;28;20171;-55
2022/03/29 04:39:40;;;;;;;30.38;19.00;;;7.00;99.90;;;;;;5113563;28;20051;-53
2022/03/29 04:42:06;;;;;;;34.38;20.42;;;7.10;99.90;;;;;;5113971;28;20114;-53
2022/03/29 04:44:34;;;;;;;34.70;20.00;;;7.10;99.90;;;;;;5095837;28;20062;-55
2022/03/29 04:47:00;;;;;;;28.95;18.73;;;7.10;99.90;;;;;;5113378;28;20050;-54
2022/03/29 04:49:26;;;;;;;33.00;19.33;;;7.00;99.90;;;;;;5095812;28;20048;-53
2022/03/29 04:51:51;;;;;;;33.13;18.40;;;7.10;99.90;;;;;;5113468;28;20051;-56
2022/03/29 04:54:17;;;;;;;33.75;20.10;;;7.10;99.90;;;;;;5095612;28;20040;-55
2022/03/29 04:56:43;;;;;;;34.50;19.25;;;7.10;99.90;;;;;;5113392;28;20042;-54
2022/03/29 04:59:09;;;;;;;34.08;18.85;;;7.00;99.90;;;;;;5113613;28;20040;-56
2022/03/29 05:01:36;;;;;;;36.75;20.30;;;7.10;99.90;;;;;;5078721;28;20153;-54
2022/03/29 05:04:03;;;;;;;38.25;22.88;;;7.10;99.90;;;;;;5113239;28;20122;-55
2022/03/29 05:06:28;;;;;;;39.10;22.60;;;7.10;99.90;;;;;;5113487;28;20047;-54
2022/03/29 05:08:54;;;;;;;41.60;22.58;;;7.10;99.90;;;;;;5113099;28;20183;-53
2022/03/29 05:11:20;;;;;;;40.50;22.05;;;7.10;99.90;;;;;;5113397;28;20048;-52
2022/03/29 05:13:45;;;;;;;40.75;22.10;;;7.10;99.90;;;;;;5112955;28;20500;-52
2022/03/29 05:16:11;;;;;;;40.97;23.10;;;7.10;99.90;;;;;;5094439;28;20086;-54
2022/03/29 05:18:37;;;;;;;38.60;22.95;;;7.10;99.90;;;;;;5113123;28;20079;-53
2022/03/29 05:21:03;;;;;;;37.13;22.27;;;7.10;99.90;;;;;;5094802;28;20503;-53
2022/03/29 05:23:28;;;;;;;39.05;23.27;;;7.10;99.90;;;;;;5078129;28;20043;-54
2022/03/29 05:25:54;;;;;;;32.95;23.42;;;7.10;99.90;;;;;;5094456;28;20047;-56
2022/03/29 05:28:20;;;;;;;37.45;24.02;;;7.10;99.90;;;;;;5112958;28;20131;-55
2022/03/29 05:30:45;;;;;;;39.70;21.58;;;7.10;99.90;;;;;;5112797;28;20500;-60
2022/03/29 05:33:15;;;;;;;33.25;21.30;;;7.10;99.90;;;;;;5094542;28;20089;-53
2022/03/29 05:35:43;;;;;;;40.90;21.80;;;7.00;99.90;;;;;;5094644;28;20408;-55
2022/03/29 05:38:09;;;;;;;39.45;22.08;;;7.00;99.90;;;;;;5112081;28;20039;-50
2022/03/29 05:40:34;;;;;;;41.78;22.17;;;7.00;99.90;;;;;;5077938;28;20044;-56
2022/03/29 05:43:00;;;;;;;41.63;22.80;;;7.00;99.90;;;;;;5094424;28;20065;-55
2022/03/29 05:45:26;;;;;;;36.25;21.25;;;7.00;99.90;;;;;;5094329;28;20079;-56
2022/03/29 05:50:39;;;;;;;40.88;21.33;;;7.00;99.90;;;;;;5112746;28;20048;-54
2022/03/29 05:53:05;;;;;;;34.17;20.35;;;7.00;99.90;;;;;;5112312;28;20093;-55
2022/03/29 05:55:30;;;;;;;41.30;21.27;;;7.00;99.90;;;;;;5112609;28;20086;-55
2022/03/29 05:57:56;;;;;;;33.00;19.85;;;7.10;99.90;;;;;;5112090;28;20118;-56
2022/03/29 06:00:23;;;;;;;37.65;20.73;;;7.00;99.90;;;;;;5112288;28;20058;-56
2022/03/29 06:02:51;;;;;;;32.45;19.85;;;7.10;99.90;;;;;;5094265;28;20043;-54
2022/03/29 06:05:17;;;;;;;39.10;20.55;;;7.10;99.90;;;;;;5112298;28;20051;-54
2022/03/29 06:07:43;;;;;;;32.67;20.30;;;7.10;99.90;;;;;;5111793;28;20496;-54
2022/03/29 06:10:09;;;;;;;36.20;19.17;;;7.10;99.90;;;;;;5111789;28;20039;-56
2022/03/29 06:12:38;;;;;;;35.53;18.92;;;7.10;99.90;;;;;;5112086;28;20083;-55
2022/03/29 06:15:06;;;;;;;34.63;20.98;;;7.10;99.90;;;;;;5111450;28;20381;-58
2022/03/29 06:17:32;;;;;;;33.65;19.27;;;7.10;99.90;;;;;;5077339;28;20043;-58
2022/03/29 06:19:58;;;;;;;33.47;19.20;;;7.10;99.90;;;;;;5060310;28;20054;-59
2022/03/29 06:22:24;;;;;;;32.35;19.15;;;7.10;99.90;;;;;;5060740;28;20047;-59
2022/03/29 06:24:50;;;;;;;32.97;18.25;;;7.10;99.90;;;;;;5077673;28;20050;-56
2022/03/29 06:27:16;;;;;;;34.10;19.60;;;7.20;99.90;;;;;;5093368;28;20126;-57
2022/03/29 06:29:42;;;;;;;34.50;20.75;;;7.20;99.90;;;;;;5093789;28;20055;-54
2022/03/29 06:32:08;;;;;;;34.28;20.58;;;7.20;99.90;;;;;;5093348;28;20052;-56
2022/03/29 06:34:34;;;;;;;32.92;19.98;;;7.20;99.90;;;;;;5112017;28;20111;-61
2022/03/29 06:37:00;;;;;;;38.95;20.85;;;7.20;99.90;;;;;;5093487;28;20043;-57
2022/03/29 06:39:26;;;;;;;40.13;21.58;;;7.30;99.90;;;;;;5094162;28;20040;-53
2022/03/29 06:41:55;;;;;;;35.75;19.88;;;7.30;99.90;;;;;;5093957;28;20086;-57
2022/03/29 06:44:21;;;;;;;34.75;21.35;;;7.30;99.90;;;;;;5093765;28;20096;-56
2022/03/29 06:46:49;;;;;;;34.95;20.50;;;7.30;99.90;;;;;;5112002;28;20043;-54
2022/03/29 06:49:15;;;;;;;36.70;20.85;;;7.30;99.90;;;;;;5111465;28;20055;-56
2022/03/29 06:51:43;;;;;;;34.03;20.42;;;7.30;99.90;;;;;;5093821;28;20048;-55
2022/03/29 06:54:09;;;;;;;34.13;20.65;;;7.30;99.90;;;;;;5111513;28;20213;-55
2022/03/29 06:56:35;;;;;;;39.05;23.02;;;7.30;99.90;;;;;;5111885;28;20075;-54
2022/03/29 06:59:01;;;;;;;36.13;20.42;;;7.30;99.90;;;;;;5094419;28;20530;-55
2022/03/29 07:01:27;;;;;;;39.97;20.52;;;7.40;99.90;;;;;;5097506;28;20047;-56
2022/03/29 07:03:57;;;;;;;35.42;20.77;;;7.30;99.90;;;;;;5115519;28;20516;-54
2022/03/29 07:06:23;;;;;;;36.40;19.50;;;7.40;99.90;;;;;;5097421;28;20043;-54
2022/03/29 07:11:38;;;;;;;34.13;20.98;;;7.40;99.90;;;;;;5086151;28;20043;-53
2022/03/29 07:14:06;;;;;;;40.20;19.73;;;7.50;99.90;;;;;;5097452;28;20378;-54
2022/03/29 07:16:32;;;;;;;31.52;19.63;;;7.50;99.90;;;;;;5093323;28;20421;-53
2022/03/29 07:18:58;;;;;;;39.03;19.98;;;7.50;99.90;;;;;;5095298;28;20048;-51
2022/03/29 07:21:24;;;;;;;33.60;19.88;;;7.60;99.90;;;;;;5094509;28;20346;-51
2022/03/29 07:23:50;;;;;;;39.10;21.08;;;7.60;99.90;;;;;;5093953;28;20056;-54
2022/03/29 07:26:16;;;;;;;30.45;19.38;;;7.60;99.90;;;;;;5094591;28;20040;-54
2022/03/29 07:28:42;;;;;;;30.55;19.88;;;7.70;99.90;;;;;;5094963;28;20092;-55
2022/03/29 07:31:08;;;;;;;32.08;20.00;;;7.90;99.90;;;;;;5093578;28;20044;-57
2022/03/29 07:33:34;;;;;;;31.40;19.80;;;8.00;99.90;;;;;;5093902;28;20093;-56
2022/03/29 07:36:03;;;;;;;32.65;20.33;;;8.10;99.90;;;;;;5076861;28;20503;-56
2022/03/29 07:38:29;;;;;;;33.80;19.33;;;8.20;99.90;;;;;;5094935;28;20048;-57
2022/03/29 07:40:55;;;;;;;30.15;18.80;;;8.20;99.90;;;;;;5093867;28;20185;-53
2022/03/29 07:43:22;;;;;;;31.42;18.77;;;8.30;99.90;;;;;;5094177;28;20048;-54
2022/03/29 07:45:48;;;;;;;38.88;18.27;;;8.30;99.90;;;;;;5094463;28;20144;-54
2022/03/29 07:48:14;;;;;;;31.70;18.30;;;8.40;99.90;;;;;;5093047;28;20056;-53
2022/03/29 07:50:40;;;;;;;33.92;18.65;;;8.40;99.90;;;;;;5076883;28;20472;-54
2022/03/29 07:53:06;;;;;;;32.20;18.02;;;8.40;99.90;;;;;;5093063;28;20044;-61
2022/03/29 07:55:33;;;;;;;27.77;18.08;;;8.40;99.90;;;;;;5094685;28;20043;-53
2022/03/29 07:57:59;;;;;;;31.98;17.63;;;8.40;99.90;;;;;;5094581;28;20452;-55
2022/03/29 08:00:35;;;;;;;28.50;17.20;;;8.40;99.90;;;;;;5094007;28;20131;-56
2022/03/29 08:03:18;;;;;;;33.85;16.35;;;8.40;99.90;;;;;;5093388;28;20090;-55
2022/03/29 08:05:47;;;;;;;25.45;15.65;;;8.40;99.90;;;;;;5076532;28;20047;-57
2022/03/29 08:08:15;;;;;;;28.20;15.45;;;8.40;99.90;;;;;;5092581;28;20086;-58
2022/03/29 08:10:41;;;;;;;28.67;16.08;;;8.40;99.90;;;;;;5092741;28;20097;-57
2022/03/29 08:13:10;;;;;;;30.25;16.02;;;8.40;99.90;;;;;;5094112;28;20079;-52
2022/03/29 08:15:36;;;;;;;29.83;15.70;;;8.40;99.90;;;;;;5092260;28;20052;-58
2022/03/29 08:18:03;;;;;;;32.40;14.95;;;8.40;99.90;;;;;;5093493;28;20052;-55
2022/03/29 08:20:29;;;;;;;25.55;13.40;;;8.30;99.90;;;;;;5091901;28;20047;-55
2022/03/29 08:23:00;;;;;;;26.02;13.45;;;8.30;99.90;;;;;;5093448;28;20102;-57
2022/03/29 08:25:27;;;;;;;27.90;12.90;;;8.40;99.90;;;;;;5092118;28;20052;-54
2022/03/29 08:27:56;;;;;;;30.23;13.65;;;8.40;99.90;;;;;;5093045;28;20509;-54
2022/03/29 08:30:24;;;;;;;26.00;12.48;;;8.40;99.90;;;;;;5093247;28;20052;-54
2022/03/29 08:32:51;;;;;;;22.25;11.48;;;8.40;99.90;;;;;;5091923;28;20481;-53
2022/03/29 08:35:17;;;;;;;24.58;12.00;;;8.40;99.90;;;;;;5093015;28;20392;-51
2022/03/29 08:37:43;;;;;;;24.63;11.77;;;8.40;99.90;;;;;;5093295;28;20044;-53
2022/03/29 08:40:13;;;;;;;21.98;10.50;;;8.40;99.90;;;;;;5091705;28;20075;-54
2022/03/29 08:42:41;;;;;;;24.55;9.82;;;8.40;99.90;;;;;;5093163;28;20085;-55
2022/03/29 08:45:08;;;;;;;26.65;10.98;;;8.40;99.90;;;;;;5092000;28;20381;-54
2022/03/29 08:47:34;;;;;;;23.23;11.30;;;8.40;99.90;;;;;;5093231;28;20123;-54
2022/03/29 08:50:04;;;;;;;20.67;10.10;;;8.40;99.90;;;;;;5093404;28;20040;-54
2022/03/29 08:52:31;;;;;;;22.30;10.60;;;8.40;99.90;;;;;;5075163;28;20088;-53
2022/03/29 08:54:57;;;;;;;26.40;10.90;;;8.40;99.90;;;;;;5093507;28;20044;-50
2022/03/29 08:57:23;;;;;;;27.23;10.15;;;8.40;99.90;;;;;;5091719;28;20048;-54
2022/03/29 08:59:49;;;;;;;22.60;9.95;;;8.40;99.90;;;;;;5092254;28;20047;-53
2022/03/29 09:02:16;;;;;;;22.25;9.40;;;8.40;99.90;;;;;;5091907;28;20087;-59
2022/03/29 09:05:10;;;;;;;24.70;10.15;;;8.50;99.90;;;;;;5092995;28;20144;-54
2022/03/29 09:07:55;;;;;;;25.25;9.90;;;8.60;99.90;;;;;;5092451;28;20040;-54
2022/03/29 09:10:37;;;;;;;23.73;9.43;;;8.70;99.90;;;;;;5091451;28;20047;-54
2022/03/29 09:13:29;;;;;;;19.67;9.88;;;8.80;99.90;;;;;;5091731;28;20048;-57
2022/03/29 09:16:00;;;;;;;23.80;9.68;;;9.00;99.90;;;;;;5074489;28;20056;-55
2022/03/29 09:18:27;;;;;;;25.02;9.90;;;9.10;99.90;;;;;;5092507;28;20043;-54
2022/03/29 09:21:27;;;;;;;27.85;9.77;;;9.10;99.90;;;;;;5091530;28;20048;-54
2022/03/29 09:24:14;;;;;;;18.65;8.40;;;9.30;99.90;;;;;;5048355;28;20052;-55
2022/03/29 09:26:52;;;;;;;22.25;8.98;;;9.50;99.90;;;;;;5091225;28;20054;-55
2022/03/29 09:29:26;;;;;;;21.83;8.90;;;9.50;99.90;;;;;;5092515;28;20063;-59
2022/03/29 09:32:12;;;;;;;23.98;9.52;;;9.50;99.90;;;;;;5092452;28;20146;-54
2022/03/29 09:34:38;;;;;;;27.98;10.23;;;9.60;99.90;;;;;;5091925;28;20044;-59
2022/03/29 09:37:05;;;;;;;21.02;9.00;;;9.80;99.90;;;;;;5092285;28;20055;-55
2022/03/29 09:39:40;;;;;;;22.80;8.40;;;9.90;99.90;;;;;;5090762;28;20556;-53
2022/03/29 09:42:13;;;;;;;17.63;8.15;;;10.10;99.90;;;;;;5092630;28;20089;-54
2022/03/29 09:44:41;;;;;;;22.00;7.70;;;10.00;99.90;;;;;;5092120;28;20048;-55
2022/03/29 09:47:08;;;;;;;26.77;8.98;;;10.10;99.90;;;;;;5090506;28;20078;-60
2022/03/29 09:49:54;;;;;;;19.73;8.60;;;10.20;99.90;;;;;;5073070;28;20066;-55
2022/03/29 09:52:28;;;;;;;26.80;9.68;;;10.20;99.90;;;;;;5090278;28;20455;-57
2022/03/29 09:55:21;;;;;;;21.80;9.13;;;10.10;99.90;;;;;;5092261;28;20068;-56
2022/03/29 09:57:53;;;;;;;20.50;8.65;;;10.30;99.90;;;;;;5091832;28;20044;-58
2022/03/29 10:00:32;;;;;;;23.15;8.73;;;10.30;99.90;;;;;;5090546;28;20101;-55
2022/03/29 10:02:59;;;;;;;23.13;8.10;;;10.30;99.90;;;;;;5091856;28;20044;-54
2022/03/29 10:05:26;;;;;;;28.08;8.90;;;10.40;99.90;;;;;;5090384;28;20044;-59
2022/03/29 10:10:58;;;;;;;31.20;8.18;;;10.30;99.90;;;;;;5091926;28;20402;-55
2022/03/29 10:13:24;;;;;;;26.35;8.20;;;10.30;99.90;;;;;;5091890;28;20086;-50
2022/03/29 10:15:55;;;;;;;20.08;7.70;;;10.20;99.90;;;;;;5089874;28;20060;-54
2022/03/29 10:18:21;;;;;;;19.05;7.63;;;10.10;99.90;;;;;;5091692;28;20229;-56
2022/03/29 10:20:48;;;;;;;24.23;8.18;;;10.10;99.90;;;;;;5090082;28;20119;-53
2022/03/29 10:23:14;;;;;;;18.92;7.47;;;10.10;99.90;;;;;;5091747;28;20048;-53
2022/03/29 10:25:42;;;;;;;18.08;7.10;;;10.10;99.90;;;;;;5091062;28;20056;-54
2022/03/29 10:28:08;;;;;;;18.80;7.55;;;10.20;99.90;;;;;;5090344;28;20048;-52
2022/03/29 10:30:36;;;;;;;20.73;8.00;;;10.20;99.90;;;;;;5091159;28;20063;-53
2022/03/29 10:33:30;;;;;;;18.30;7.38;;;10.30;99.90;;;;;;5089788;28;20055;-55
2022/03/29 10:36:02;;;;;;;19.40;6.70;;;10.50;99.90;;;;;;5090529;28;20443;-55
2022/03/29 10:38:45;;;;;;;18.30;7.43;;;10.70;99.90;;;;;;5091494;28;20048;-59
2022/03/29 10:41:27;;;;;;;14.48;6.32;;;10.80;99.90;;;;;;5091241;28;20126;-54
2022/03/29 10:44:08;;;;;;;17.70;7.38;;;10.80;99.90;;;;;;5089702;28;20127;-55
2022/03/29 10:46:38;;;;;;;19.45;6.60;;;10.80;99.90;;;;;;5090086;28;20565;-53
2022/03/29 10:49:20;;;;;;;19.23;7.10;;;10.80;99.90;;;;;;5090215;28;20126;-54
2022/03/29 10:51:46;;;;;;;17.77;7.25;;;10.70;99.90;;;;;;5089756;28;20054;-55
2022/03/29 10:54:40;;;;;;;18.35;6.65;;;10.60;99.90;;;;;;5090979;28;20106;-56
2022/03/29 10:57:18;;;;;;;18.23;6.85;;;10.70;99.90;;;;;;5090295;28;20126;-54
2022/03/29 10:59:48;;;;;;;23.02;7.20;;;10.80;99.90;;;;;;5089636;28;20051;-52
2022/03/29 11:02:20;;;;;;;21.15;7.93;;;10.80;99.90;;;;;;5091307;28;20058;-55
2022/03/29 11:05:06;;;;;;;18.55;6.78;;;10.90;99.90;;;;;;5072665;28;20058;-53
2022/03/29 11:07:34;;;;;;;22.15;7.35;;;11.00;99.90;;;;;;5089476;28;20075;-56
2022/03/29 11:10:15;;;;;;;20.65;6.55;;;11.10;99.90;;;;;;5090898;28;20142;-56
2022/03/29 11:12:46;;;;;;;20.33;7.55;;;11.00;99.90;;;;;;5089619;28;20133;-56
2022/03/29 11:15:36;;;;;;;19.55;6.97;;;10.90;99.90;;;;;;5089311;28;20348;-58
2022/03/29 11:18:23;;;;;;;22.52;7.70;;;10.90;99.90;;;;;;5090025;28;20060;-56
2022/03/29 11:20:56;;;;;;;15.43;6.45;;;10.70;99.90;;;;;;5090090;28;20109;-55
2022/03/29 11:23:34;;;;;;;21.15;6.90;;;10.60;99.90;;;;;;5091156;28;20090;-51
2022/03/29 11:26:10;;;;;;;22.88;7.15;;;10.50;99.90;;;;;;5090843;28;20172;-56
2022/03/29 11:28:36;;;;;;;21.85;7.28;;;10.40;99.90;;;;;;5090860;28;20086;-57
2022/03/29 11:31:03;;;;;;;19.42;7.65;;;10.30;99.90;;;;;;5091117;28;20124;-56
2022/03/29 11:33:34;;;;;;;18.33;6.80;;;10.30;99.90;;;;;;5090782;28;20046;-56
2022/03/29 11:36:01;;;;;;;16.50;7.38;;;10.20;99.90;;;;;;5072783;28;20048;-54
2022/03/29 11:38:32;;;;;;;21.63;7.45;;;10.20;99.90;;;;;;5090975;28;20055;-56
2022/03/29 11:40:58;;;;;;;18.77;7.18;;;10.20;99.90;;;;;;5090480;28;20040;-54
2022/03/29 11:43:24;;;;;;;22.00;7.05;;;10.10;99.90;;;;;;5089926;28;20063;-54
2022/03/29 11:45:52;;;;;;;18.33;7.13;;;10.10;99.90;;;;;;5092563;28;20048;-53
2022/03/29 11:48:20;;;;;;;16.77;6.80;;;10.10;99.90;;;;;;5075022;28;20157;-56
2022/03/29 11:50:52;;;;;;;18.83;7.47;;;10.10;99.90;;;;;;5092598;28;20126;-51
2022/03/29 11:53:19;;;;;;;20.05;6.78;;;10.10;99.90;;;;;;5094504;28;20051;-55
2022/03/29 11:55:57;;;;;;;18.88;7.13;;;10.10;99.90;;;;;;5075500;28;20055;-54
2022/03/29 11:58:33;;;;;;;19.85;6.68;;;10.10;99.90;;;;;;5093667;28;20504;-54
2022/03/29 12:01:07;;;;;;;21.20;7.35;;;10.10;99.90;;;;;;5093671;28;20047;-55
2022/03/29 12:03:36;;;;;;;15.73;7.17;;;10.20;99.90;;;;;;5094032;28;20055;-55
2022/03/29 12:06:08;;;;;;;18.40;6.75;;;10.20;99.90;;;;;;5093295;28;20538;-56
2022/03/29 12:08:46;;;;;;;15.57;7.25;;;10.30;99.90;;;;;;5092968;28;20624;-54
2022/03/29 12:11:13;;;;;;;16.27;6.57;;;10.30;99.90;;;;;;5094008;28;20109;-55
2022/03/29 12:13:39;;;;;;;19.70;6.78;;;10.30;99.90;;;;;;5076227;28;20055;-55
2022/03/29 12:16:24;;;;;;;17.48;7.40;;;10.30;99.90;;;;;;5106386;28;20055;-54
2022/03/29 12:18:51;;;;;;;19.13;7.15;;;10.40;99.90;;;;;;5113752;28;20048;-54
2022/03/29 12:21:19;;;;;;;20.27;8.40;;;10.40;99.90;;;;;;5096034;28;20047;-56
2022/03/29 12:23:48;;;;;;;19.33;8.05;;;10.30;99.90;;;;;;5113772;28;20408;-58
2022/03/29 12:26:17;;;;;;;19.05;8.10;;;10.40;99.90;;;;;;5114191;28;20070;-54
2022/03/29 12:28:45;;;;;;;21.88;8.20;;;10.50;99.90;;;;;;5094652;28;20134;-57
2022/03/29 12:31:17;;;;;;;18.27;8.63;;;10.60;99.90;;;;;;5078868;28;20047;-58
2022/03/29 12:33:44;;;;;;;24.63;9.27;;;10.70;99.90;;;;;;5095529;28;20046;-58
2022/03/29 12:36:13;;;;;;;20.88;8.65;;;10.60;99.90;;;;;;5095800;28;20079;-56
2022/03/29 12:38:41;;;;;;;17.48;8.23;;;10.60;99.90;;;;;;5095793;28;20055;-54
2022/03/29 12:41:08;;;;;;;20.15;9.05;;;10.70;99.90;;;;;;5094962;28;20496;-54
2022/03/29 12:43:35;;;;;;;20.02;9.23;;;10.80;99.90;;;;;;5095854;28;20051;-57
2022/03/29 12:46:05;;;;;;;23.63;9.63;;;10.80;99.90;;;;;;5078510;28;20036;-57
2022/03/29 12:48:31;;;;;;;20.33;9.25;;;10.80;99.90;;;;;;5095636;28;20082;-57
2022/03/29 12:51:03;;;;;;;22.05;9.25;;;10.70;99.90;;;;;;5094987;28;20549;-58
2022/03/29 12:53:29;;;;;;;23.98;9.43;;;10.80;99.90;;;;;;5079035;28;20108;-55
2022/03/29 12:55:56;;;;;;;19.45;9.63;;;10.80;99.90;;;;;;5113034;28;20096;-56